createdAt,value
2022-09-28T00:01:21.810Z,6.64
2022-09-28T00:03:49.975Z,6.62
2022-09-28T00:06:19.387Z,6.60
2022-09-28T00:08:46.011Z,6.69
2022-09-28T00:11:15.199Z,6.67
2022-09-28T00:13:46.028Z,6.73
2022-09-28T00:16:15.477Z,6.73
2022-09-28T00:18:42.312Z,6.77
2022-09-28T00:21:12.771Z,6.84
2022-09-28T00:23:59.623Z,6.80
2022-09-28T00:26:27.304Z,6.82
2022-09-28T00:28:59.747Z,6.81
2022-09-28T00:31:32.673Z,6.77
2022-09-28T00:34:00.621Z,6.87
2022-09-28T00:36:28.755Z,6.84
2022-09-28T00:38:58.975Z,6.77
2022-09-28T00:41:27.477Z,6.82
2022-09-28T00:44:15.022Z,6.86
2022-09-28T00:46:41.740Z,6.89
2022-09-28T00:49:14.947Z,6.83
2022-09-28T00:51:43.943Z,6.90
2022-09-28T00:54:12.620Z,6.91
2022-09-28T00:56:43.784Z,6.87
2022-09-28T00:59:10.855Z,6.85
2022-09-28T01:01:37.656Z,6.97
2022-09-28T01:04:05.601Z,6.90
2022-09-28T01:06:35.674Z,7.05
2022-09-28T01:09:06.895Z,7.02
2022-09-28T01:11:36.642Z,7.08
2022-09-28T01:14:05.911Z,7.07
2022-09-28T01:16:41.349Z,7.05
2022-09-28T01:19:13.646Z,7.05
2022-09-28T01:21:52.367Z,7.01
2022-09-28T01:24:30.081Z,7.14
2022-09-28T01:27:05.915Z,7.20
2022-09-28T01:29:51.715Z,7.13
2022-09-28T01:32:43.369Z,7.31
2022-09-28T01:35:43.780Z,7.26
2022-09-28T01:38:21.105Z,7.15
2022-09-28T01:40:48.435Z,7.02
2022-09-28T01:43:20.231Z,7.02
2022-09-28T01:45:50.809Z,6.79
2022-09-28T01:48:29.213Z,6.63
2022-09-28T01:50:59.391Z,6.55
2022-09-28T01:53:32.435Z,6.49
2022-09-28T01:56:06.956Z,6.43
2022-09-28T01:58:38.635Z,6.44
2022-09-28T02:01:15.441Z,6.37
2022-09-28T02:03:50.028Z,6.32
2022-09-28T02:06:21.608Z,6.33
2022-09-28T02:08:57.301Z,6.27
2022-09-28T02:11:23.881Z,6.26
2022-09-28T02:13:56.184Z,6.36
2022-09-28T02:16:31.337Z,6.28
2022-09-28T02:18:58.242Z,6.23
2022-09-28T02:21:32.147Z,6.19
2022-09-28T02:24:06.586Z,6.17
2022-09-28T02:26:38.962Z,6.27
2022-09-28T02:29:05.319Z,6.26
2022-09-28T02:31:31.919Z,6.24
2022-09-28T02:33:59.065Z,6.29
2022-09-28T02:36:27.513Z,6.23
2022-09-28T02:38:54.190Z,6.30
2022-09-28T02:41:46.102Z,6.37
2022-09-28T02:44:31.969Z,6.37
2022-09-28T02:47:37.495Z,6.42
2022-09-28T02:50:24.535Z,6.43
2022-09-28T02:53:08.718Z,6.50
2022-09-28T02:55:47.219Z,6.50
2022-09-28T02:58:40.187Z,6.63
2022-09-28T03:01:33.820Z,6.56
2022-09-28T03:04:24.093Z,6.56
2022-09-28T03:06:59.710Z,6.47
2022-09-28T03:09:45.458Z,6.50
2022-09-28T03:12:15.451Z,6.47
2022-09-28T03:14:41.825Z,6.49
2022-09-28T03:17:08.182Z,6.49
2022-09-28T03:19:36.671Z,6.53
2022-09-28T03:22:03.153Z,6.47
2022-09-28T03:24:29.531Z,6.51
2022-09-28T03:26:55.878Z,6.48
2022-09-28T03:29:22.259Z,6.45
2022-09-28T03:31:49.083Z,6.47
2022-09-28T03:34:15.706Z,6.48
2022-09-28T03:36:42.879Z,6.38
2022-09-28T03:39:09.205Z,6.31
2022-09-28T03:41:35.566Z,6.42
2022-09-28T03:44:02.155Z,6.30
2022-09-28T03:46:28.501Z,6.35
2022-09-28T03:48:57.164Z,6.31
2022-09-28T03:51:23.699Z,6.33
2022-09-28T03:53:50.047Z,6.36
2022-09-28T03:56:17.355Z,6.22
2022-09-28T03:58:43.740Z,6.31
2022-09-28T04:01:16.527Z,6.25
2022-09-28T04:03:44.484Z,6.23
2022-09-28T04:06:10.998Z,6.17
2022-09-28T04:08:37.457Z,6.10
2022-09-28T04:11:03.891Z,6.14
2022-09-28T04:13:30.795Z,6.18
2022-09-28T04:15:59.326Z,6.23
2022-09-28T04:18:25.844Z,6.22
2022-09-28T04:21:06.627Z,6.25
2022-09-28T04:23:35.454Z,6.17
2022-09-28T04:26:06.808Z,6.29
2022-09-28T04:28:52.078Z,6.36
2022-09-28T04:31:21.935Z,6.36
2022-09-28T04:33:48.696Z,6.30
2022-09-28T04:36:15.198Z,6.27
2022-09-28T04:38:52.692Z,6.31
2022-09-28T04:41:22.082Z,6.29
2022-09-28T04:43:48.533Z,6.15
2022-09-28T04:46:15.157Z,6.27
2022-09-28T04:48:41.539Z,6.30
2022-09-28T04:51:07.938Z,6.34
2022-09-28T04:53:35.066Z,6.31
2022-09-28T04:56:11.199Z,6.29
2022-09-28T04:58:38.271Z,6.26
2022-09-28T05:01:11.055Z,6.15
2022-09-28T05:03:38.240Z,6.30
2022-09-28T05:06:06.827Z,6.19
2022-09-28T05:08:35.214Z,6.10
2022-09-28T05:11:06.910Z,6.22
2022-09-28T05:13:40.261Z,6.06
2022-09-28T05:16:06.703Z,6.05
2022-09-28T05:18:33.064Z,5.94
2022-09-28T05:20:59.427Z,5.87
2022-09-28T05:23:25.784Z,5.76
2022-09-28T05:25:52.123Z,5.76
2022-09-28T05:28:28.181Z,5.78
2022-09-28T05:31:05.149Z,5.71
2022-09-28T05:33:32.832Z,5.67
2022-09-28T05:36:01.509Z,5.59
2022-09-28T05:38:28.845Z,5.64
2022-09-28T05:40:55.756Z,5.69
2022-09-28T05:43:22.677Z,5.55
2022-09-28T05:45:54.292Z,5.50
2022-09-28T05:48:21.656Z,5.53
2022-09-28T05:50:52.333Z,5.63
2022-09-28T05:53:19.108Z,5.64
2022-09-28T05:55:45.543Z,5.64
2022-09-28T05:58:11.944Z,5.68
2022-09-28T06:00:38.289Z,5.82
2022-09-28T06:03:09.240Z,5.78
2022-09-28T06:05:36.894Z,5.83
2022-09-28T06:08:05.214Z,5.83
2022-09-28T06:10:33.247Z,5.89
2022-09-28T06:13:00.530Z,5.90
2022-09-28T06:15:29.135Z,5.81
2022-09-28T06:17:57.391Z,5.86
2022-09-28T06:20:24.476Z,5.87
2022-09-28T06:22:52.856Z,6.08
2022-09-28T06:25:19.453Z,6.03
2022-09-28T06:27:55.081Z,6.03
2022-09-28T06:30:22.444Z,6.17
2022-09-28T06:32:52.435Z,6.20
2022-09-28T06:35:18.792Z,6.24
2022-09-28T06:37:45.291Z,6.41
2022-09-28T06:40:11.629Z,6.46
2022-09-28T06:42:37.980Z,6.42
2022-09-28T06:45:04.627Z,6.50
2022-09-28T06:47:33.288Z,6.57
2022-09-28T06:50:00.033Z,6.53
2022-09-28T06:52:26.385Z,6.50
2022-09-28T06:54:52.740Z,6.57
2022-09-28T06:57:19.203Z,6.48
2022-09-28T06:59:45.570Z,6.49
2022-09-28T07:02:14.386Z,6.59
2022-09-28T07:04:43.622Z,6.79
2022-09-28T07:07:11.520Z,6.76
2022-09-28T07:09:43.697Z,6.97
2022-09-28T07:12:13.374Z,6.94
2022-09-28T07:14:47.673Z,6.90
2022-09-28T07:17:15.059Z,7.13
2022-09-28T07:19:41.928Z,7.11
2022-09-28T07:22:08.274Z,7.10
2022-09-28T07:24:34.593Z,7.08
2022-09-28T07:27:01.859Z,7.06
2022-09-28T07:29:28.221Z,7.03
2022-09-28T07:31:54.600Z,7.08
2022-09-28T07:34:23.080Z,7.07
2022-09-28T07:36:49.429Z,6.87
2022-09-28T07:39:15.771Z,6.96
2022-09-28T07:41:42.980Z,6.89
2022-09-28T07:44:09.319Z,6.84
2022-09-28T07:46:36.962Z,6.89
2022-09-28T07:49:09.822Z,6.93
2022-09-28T07:51:38.649Z,7.00
2022-09-28T07:54:06.463Z,7.03
2022-09-28T07:56:34.793Z,6.94
2022-09-28T07:59:01.162Z,6.89
2022-09-28T08:01:27.520Z,6.86
2022-09-28T08:03:56.174Z,6.81
2022-09-28T08:06:23.183Z,6.86
2022-09-28T08:08:50.219Z,6.96
2022-09-28T08:11:18.705Z,6.96
2022-09-28T08:13:46.412Z,6.99
2022-09-28T08:16:12.945Z,7.05
2022-09-28T08:18:39.438Z,7.16
2022-09-28T08:21:24.722Z,7.20
2022-09-28T08:23:51.339Z,7.13
2022-09-28T08:26:17.703Z,7.18
2022-09-28T08:28:45.124Z,7.26
2022-09-28T08:31:11.648Z,7.32
2022-09-28T08:33:38.462Z,7.44
2022-09-28T08:36:05.948Z,7.29
2022-09-28T08:38:32.735Z,7.37
2022-09-28T08:41:11.535Z,7.46
2022-09-28T08:43:40.775Z,7.52
2022-09-28T08:46:09.615Z,7.60
2022-09-28T08:48:52.262Z,7.67
2022-09-28T08:52:09.457Z,7.83
2022-09-28T08:54:41.551Z,7.96
2022-09-28T08:57:33.438Z,7.93
2022-09-28T09:00:02.439Z,8.04
2022-09-28T09:02:39.259Z,7.92
2022-09-28T09:05:13.662Z,7.84
2022-09-28T09:07:45.807Z,7.90
2022-09-28T09:10:48.035Z,7.89
2022-09-28T09:13:23.540Z,7.80
2022-09-28T09:16:18.911Z,7.89
2022-09-28T09:18:55.716Z,7.84
2022-09-28T09:21:37.021Z,7.75
2022-09-28T09:24:27.840Z,7.73
2022-09-28T09:27:17.035Z,7.70
2022-09-28T09:29:54.852Z,7.79
2022-09-28T09:32:42.667Z,7.78
2022-09-28T09:35:46.206Z,7.75
2022-09-28T09:38:24.673Z,7.79
2022-09-28T09:41:06.187Z,7.78
2022-09-28T09:44:14.721Z,7.96
2022-09-28T09:46:54.902Z,7.92
2022-09-28T09:49:33.719Z,8.18
2022-09-28T09:52:14.615Z,8.13
2022-09-28T09:54:49.748Z,8.03
2022-09-28T09:57:25.781Z,8.02
2022-09-28T09:59:52.353Z,7.96
2022-09-28T10:02:28.064Z,7.93
2022-09-28T10:05:01.289Z,8.06
2022-09-28T10:07:44.774Z,8.01
2022-09-28T10:10:22.853Z,7.99
2022-09-28T10:12:51.084Z,8.09
2022-09-28T10:15:24.399Z,8.07
2022-09-28T10:17:51.290Z,8.23
2022-09-28T10:20:19.029Z,8.17
2022-09-28T10:22:46.238Z,8.14
2022-09-28T10:25:13.260Z,8.25
2022-09-28T10:27:45.169Z,8.22
2022-09-28T10:30:16.920Z,8.28
2022-09-28T10:32:48.870Z,8.33
2022-09-28T10:35:17.933Z,8.33
2022-09-28T10:38:06.023Z,8.50
2022-09-28T10:40:46.591Z,8.50
2022-09-28T10:43:18.444Z,8.77
2022-09-28T10:45:45.184Z,8.82
2022-09-28T10:48:34.225Z,8.70
2022-09-28T10:51:04.577Z,8.61
2022-09-28T10:53:31.002Z,8.45
2022-09-28T10:56:08.580Z,8.45
2022-09-28T10:58:40.552Z,8.50
2022-09-28T11:01:10.638Z,8.51
2022-09-28T11:03:50.111Z,8.37
2022-09-28T11:06:24.449Z,8.61
2022-09-28T11:08:51.397Z,8.51
2022-09-28T11:11:21.738Z,8.60
2022-09-28T11:13:53.780Z,8.48
2022-09-28T11:16:22.929Z,8.38
2022-09-28T11:18:49.819Z,8.41
2022-09-28T11:21:21.353Z,8.41
2022-09-28T11:24:19.119Z,8.35
2022-09-28T11:26:48.346Z,8.35
2022-09-28T11:29:30.741Z,8.41
2022-09-28T11:32:03.224Z,8.39
2022-09-28T11:34:54.962Z,8.37
2022-09-28T11:37:28.771Z,8.29
2022-09-28T11:40:30.376Z,8.24
2022-09-28T11:43:33.599Z,8.23
2022-09-28T11:46:30.489Z,8.34
2022-09-28T11:49:07.293Z,8.24
2022-09-28T11:51:37.190Z,8.24
2022-09-28T11:54:14.391Z,8.31
2022-09-28T11:56:45.941Z,8.34
2022-09-28T11:59:18.543Z,8.34
2022-09-28T12:01:57.012Z,8.40
2022-09-28T12:04:38.451Z,8.48
2022-09-28T12:07:17.538Z,8.45
2022-09-28T12:09:46.876Z,8.50
2022-09-28T12:12:24.517Z,8.59
2022-09-28T12:14:55.480Z,8.59
2022-09-28T12:17:38.774Z,8.79
2022-09-28T12:20:19.079Z,8.84
2022-09-28T12:23:08.164Z,8.96
2022-09-28T12:25:42.561Z,8.86
2022-09-28T12:28:18.730Z,9.22
2022-09-28T12:30:47.459Z,9.17
2022-09-28T12:33:17.693Z,9.26
2022-09-28T12:36:07.621Z,9.21
2022-09-28T12:38:54.112Z,9.39
2022-09-28T12:41:50.591Z,9.38
2022-09-28T12:44:34.939Z,9.31
2022-09-28T12:47:22.363Z,9.44
2022-09-28T12:53:14.875Z,9.62
2022-09-28T12:55:56.217Z,9.58
2022-09-28T12:58:48.775Z,9.57
2022-09-28T13:01:45.240Z,9.81
2022-09-28T13:04:33.565Z,9.62
2022-09-28T13:07:09.519Z,9.48
2022-09-28T13:10:12.168Z,9.69
2022-09-28T13:12:52.524Z,9.71
2022-09-28T13:15:39.866Z,9.53
2022-09-28T13:18:16.631Z,9.54
2022-09-28T13:21:19.232Z,9.41
2022-09-28T13:23:48.404Z,9.58
2022-09-28T13:26:37.701Z,9.66
2022-09-28T13:29:12.569Z,9.72
2022-09-28T13:31:48.825Z,9.60
2022-09-28T13:34:28.802Z,9.65
2022-09-28T13:37:14.436Z,9.97
2022-09-28T13:39:52.073Z,10.00
2022-09-28T13:42:41.388Z,9.96
2022-09-28T13:45:13.737Z,9.95
2022-09-28T13:48:01.931Z,9.93
2022-09-28T13:50:46.635Z,10.07
2022-09-28T13:53:23.145Z,9.96
2022-09-28T13:56:15.948Z,10.06
2022-09-28T13:58:58.376Z,9.91
2022-09-28T14:01:45.410Z,10.02
2022-09-28T14:04:19.630Z,9.96
2022-09-28T14:06:57.500Z,10.04
2022-09-28T14:09:26.787Z,9.92
2022-09-28T14:12:03.460Z,9.82
2022-09-28T14:14:43.620Z,9.85
2022-09-28T14:17:18.909Z,10.08
2022-09-28T14:19:51.919Z,10.28
2022-09-28T14:22:40.200Z,10.37
2022-09-28T14:25:23.515Z,10.22
2022-09-28T14:28:01.160Z,10.06
2022-09-28T14:30:46.173Z,10.13
2022-09-28T14:33:23.480Z,10.10
2022-09-28T14:36:04.644Z,9.87
2022-09-28T14:38:54.424Z,9.80
2022-09-28T14:41:31.241Z,9.88
2022-09-28T14:44:08.337Z,9.76
2022-09-28T14:46:40.536Z,9.75
2022-09-28T14:49:23.228Z,9.77
2022-09-28T14:51:58.335Z,10.01
2022-09-28T14:54:27.367Z,9.97
2022-09-28T14:56:53.869Z,10.01
2022-09-28T14:59:24.756Z,10.11
2022-09-28T15:02:01.197Z,10.04
2022-09-28T15:04:30.174Z,10.18
2022-09-28T15:06:58.040Z,10.08
2022-09-28T15:09:27.829Z,9.95
2022-09-28T15:12:00.690Z,9.90
2022-09-28T15:14:31.892Z,10.11
2022-09-28T15:17:09.590Z,9.94
2022-09-28T15:20:00.760Z,9.89
2022-09-28T15:22:27.324Z,9.77
2022-09-28T15:25:01.376Z,9.71
2022-09-28T15:27:36.974Z,9.79
2022-09-28T15:30:24.029Z,9.78
2022-09-28T15:32:50.899Z,9.79
2022-09-28T15:35:26.299Z,10.06
2022-09-28T15:37:54.806Z,9.99
2022-09-28T15:40:33.167Z,9.95
2022-09-28T15:42:59.974Z,10.07
2022-09-28T15:45:31.954Z,10.14
2022-09-28T15:48:26.512Z,10.09
2022-09-28T15:51:05.095Z,9.86
2022-09-28T15:53:32.907Z,9.82
2022-09-28T15:56:03.546Z,9.79
2022-09-28T15:58:29.905Z,9.70
2022-09-28T16:01:21.768Z,9.74
2022-09-28T16:03:48.321Z,9.95
2022-09-28T16:06:14.834Z,9.75
2022-09-28T16:08:45.664Z,9.78
2022-09-28T16:11:24.188Z,9.77
2022-09-28T16:13:51.976Z,9.70
2022-09-28T16:16:25.212Z,9.59
2022-09-28T16:18:51.783Z,9.58
2022-09-28T16:21:40.039Z,9.60
2022-09-28T16:24:08.417Z,9.46
2022-09-28T16:26:38.878Z,9.44
2022-09-28T16:29:25.699Z,9.53
2022-09-28T16:31:53.139Z,9.43
2022-09-28T16:34:24.348Z,9.42
2022-09-28T16:36:51.049Z,9.37
2022-09-28T16:39:18.752Z,9.38
2022-09-28T16:41:49.893Z,9.30
2022-09-28T16:44:23.142Z,9.32
2022-09-28T16:46:50.974Z,9.28
2022-09-28T16:49:20.500Z,9.32
2022-09-28T16:51:47.780Z,9.32
2022-09-28T16:54:38.155Z,9.35
2022-09-28T16:57:06.468Z,9.31
2022-09-28T16:59:33.275Z,9.29
2022-09-28T17:02:00.155Z,9.25
2022-09-28T17:04:26.845Z,9.16
2022-09-28T17:06:55.468Z,9.17
2022-09-28T17:09:23.274Z,9.13
2022-09-28T17:11:55.973Z,9.28
2022-09-28T17:14:23.457Z,9.33
2022-09-28T17:17:11.566Z,9.33
2022-09-28T17:19:39.809Z,9.16
2022-09-28T17:22:07.865Z,9.09
2022-09-28T17:24:34.216Z,8.99
2022-09-28T17:27:02.075Z,9.05
2022-09-28T17:29:29.456Z,9.10
2022-09-28T17:31:55.898Z,9.07
2022-09-28T17:34:22.234Z,8.96
2022-09-28T17:36:48.693Z,8.97
2022-09-28T17:39:17.531Z,8.97
2022-09-28T17:41:44.250Z,8.95
2022-09-28T17:44:14.966Z,8.95
2022-09-28T17:46:48.950Z,8.86
2022-09-28T17:49:16.772Z,8.94
2022-09-28T17:51:43.149Z,9.00
2022-09-28T17:54:09.583Z,9.02
2022-09-28T17:56:36.516Z,8.98
2022-09-28T17:59:05.833Z,8.92
2022-09-28T18:01:35.809Z,8.89
2022-09-28T18:04:04.871Z,8.83
2022-09-28T18:06:35.063Z,8.87
2022-09-28T18:09:04.635Z,8.96
2022-09-28T18:11:32.635Z,8.92
2022-09-28T18:13:59.055Z,8.90
2022-09-28T18:16:27.772Z,8.86
2022-09-28T18:18:54.166Z,8.95
2022-09-28T18:21:20.582Z,8.99
2022-09-28T18:23:46.954Z,8.89
2022-09-28T18:26:15.128Z,8.88
2022-09-28T18:28:41.959Z,8.89
2022-09-28T18:31:10.558Z,9.01
2022-09-28T18:33:37.604Z,8.87
2022-09-28T18:36:05.425Z,8.93
2022-09-28T18:38:32.199Z,8.99
2022-09-28T18:41:10.107Z,8.83
2022-09-28T18:43:36.954Z,8.91
2022-09-28T18:46:08.116Z,8.81
2022-09-28T18:48:35.925Z,8.93
2022-09-28T18:51:03.055Z,9.03
2022-09-28T18:53:33.211Z,8.97
2022-09-28T18:56:05.653Z,9.06
2022-09-28T18:58:34.691Z,9.00
2022-09-28T19:01:28.570Z,9.08
2022-09-28T19:03:54.432Z,9.08
2022-09-28T19:06:21.249Z,9.06
2022-09-28T19:08:53.280Z,9.16
2022-09-28T19:11:19.734Z,9.15
2022-09-28T19:13:46.098Z,9.15
2022-09-28T19:16:16.513Z,9.17
2022-09-28T19:18:43.811Z,9.07
2022-09-28T19:21:13.192Z,9.18
2022-09-28T19:23:40.716Z,9.20
2022-09-28T19:26:13.872Z,9.16
2022-09-28T19:28:40.260Z,9.02
2022-09-28T19:31:10.501Z,9.02
2022-09-28T19:33:37.796Z,8.94
2022-09-28T19:36:09.130Z,8.92
2022-09-28T19:38:37.751Z,8.82
2022-09-28T19:41:35.885Z,8.72
2022-09-28T19:44:07.064Z,8.55
2022-09-28T19:46:34.936Z,8.60
2022-09-28T19:49:02.170Z,8.57
2022-09-28T19:51:28.794Z,8.50
2022-09-28T19:53:55.276Z,8.43
2022-09-28T19:56:21.705Z,8.36
2022-09-28T19:58:48.089Z,8.27
2022-09-28T20:01:14.469Z,8.23
2022-09-28T20:03:40.881Z,8.16
2022-09-28T20:06:07.617Z,8.10
2022-09-28T20:08:34.132Z,8.06
2022-09-28T20:11:00.527Z,8.04
2022-09-28T20:13:35.256Z,7.96
2022-09-28T20:16:09.198Z,7.99
2022-09-28T20:18:38.114Z,7.93
2022-09-28T20:21:07.222Z,7.88
2022-09-28T20:23:36.140Z,7.93
2022-09-28T20:26:04.708Z,7.89
2022-09-28T20:28:31.690Z,7.89
2022-09-28T20:31:09.728Z,7.93
2022-09-28T20:33:36.554Z,7.84
2022-09-28T20:36:07.929Z,7.76
2022-09-28T20:38:35.089Z,7.68
2022-09-28T20:41:02.800Z,7.56
2022-09-28T20:43:31.256Z,7.58
2022-09-28T20:46:05.201Z,7.54
2022-09-28T20:48:32.184Z,7.71
2022-09-28T20:51:04.677Z,7.65
2022-09-28T20:53:31.688Z,7.64
2022-09-28T20:56:02.848Z,7.56
2022-09-28T20:58:29.668Z,7.52
2022-09-28T21:01:07.886Z,7.50
2022-09-28T21:03:35.446Z,7.45
2022-09-28T21:06:02.444Z,7.36
2022-09-28T21:08:29.656Z,7.25
2022-09-28T21:10:56.037Z,7.12
2022-09-28T21:13:23.441Z,6.98
2022-09-28T21:15:49.923Z,6.89
2022-09-28T21:18:17.619Z,6.84
2022-09-28T21:20:51.053Z,6.81
2022-09-28T21:23:21.598Z,6.72
2022-09-28T21:25:50.410Z,6.60
2022-09-28T21:28:17.311Z,6.57
2022-09-28T21:30:45.305Z,6.54
2022-09-28T21:33:11.734Z,6.52
2022-09-28T21:35:40.948Z,6.39
2022-09-28T21:38:07.340Z,6.26
2022-09-28T21:40:33.755Z,6.29
2022-09-28T21:43:00.131Z,6.18
2022-09-28T21:45:26.522Z,6.10
2022-09-28T21:47:53.862Z,6.07
2022-09-28T21:50:22.729Z,5.94
2022-09-28T21:52:54.353Z,5.89
2022-09-28T21:55:22.851Z,5.90
2022-09-28T21:57:50.977Z,5.95
2022-09-28T22:00:20.281Z,5.95
2022-09-28T22:02:46.695Z,5.87
2022-09-28T22:05:13.444Z,5.83
2022-09-28T22:07:41.099Z,5.79
2022-09-28T22:10:10.308Z,5.79
2022-09-28T22:12:37.032Z,5.75
2022-09-28T22:15:04.387Z,5.76
2022-09-28T22:17:30.851Z,5.68
2022-09-28T22:19:57.408Z,5.59
2022-09-28T22:22:28.413Z,5.52
2022-09-28T22:24:56.062Z,5.51
2022-09-28T22:27:22.463Z,5.44
2022-09-28T22:29:50.931Z,5.53
2022-09-28T22:32:17.341Z,5.44
2022-09-28T22:34:43.692Z,5.30
2022-09-28T22:37:10.035Z,5.42
2022-09-28T22:39:37.863Z,5.29
2022-09-28T22:42:04.601Z,5.33
2022-09-28T22:44:30.970Z,5.27
2022-09-28T22:46:57.347Z,5.24
2022-09-28T22:49:24.343Z,5.23
2022-09-28T22:51:50.681Z,5.25
2022-09-28T22:54:17.087Z,5.31
2022-09-28T22:56:44.096Z,5.34
2022-09-28T22:59:11.778Z,5.22
2022-09-28T23:01:38.792Z,5.21
2022-09-28T23:04:05.433Z,5.19
2022-09-28T23:06:32.992Z,5.08
2022-09-28T23:09:00.458Z,5.06
2022-09-28T23:11:28.092Z,5.04
2022-09-28T23:13:56.807Z,5.02
2022-09-28T23:16:25.729Z,5.01
2022-09-28T23:18:54.187Z,5.07
2022-09-28T23:21:23.994Z,5.01
2022-09-28T23:23:58.782Z,4.96
2022-09-28T23:26:28.687Z,5.07
2022-09-28T23:28:55.636Z,5.06
2022-09-28T23:31:24.714Z,4.96
2022-09-28T23:33:51.623Z,5.10
2022-09-28T23:36:18.382Z,4.99
2022-09-28T23:38:44.764Z,4.90
2022-09-28T23:41:11.315Z,5.00
2022-09-28T23:43:37.822Z,4.86
2022-09-28T23:46:05.092Z,4.81
2022-09-28T23:48:31.792Z,4.66
2022-09-28T23:50:58.250Z,4.61
2022-09-28T23:53:24.690Z,4.68
2022-09-28T23:55:51.059Z,4.56
2022-09-28T23:58:17.449Z,4.61
